Time;durP1;ratioP1;P1;durP2;ratioP2;P2;SDS_P1;SDS_P2;PMS_P1;PMS_P2;Temp;Humidity;BMP_temperature;BMP_pressure;BME280_temperature;BME280_humidity;BME280_pressure;Samples;Min_cycle;Max_cycle;Signal;HPM_P1;HPM_P2
2024/02/24 00:02:06;;;;;;;0.35;0.32;;;;;;;;;;5019484;28;20026;-79
2024/02/24 00:04:32;;;;;;;0.50;0.32;;;;;;;;;;5019750;28;20029;-80
2024/02/24 00:06:58;;;;;;;0.30;0.30;;;;;;;;;;5019132;28;20029;-79
2024/02/24 00:09:24;;;;;;;0.38;0.32;;;;;;;;;;5020244;28;20096;-78
2024/02/24 00:11:50;;;;;;;0.32;0.32;;;;;;;;;;5018367;28;20076;-79
2024/02/24 00:14:16;;;;;;;0.57;0.50;;;;;;;;;;5033244;28;20025;-80
2024/02/24 00:16:43;;;;;;;0.35;0.30;;;;;;;;;;5018833;28;20078;-79
2024/02/24 00:19:10;;;;;;;0.55;0.50;;;;;;;;;;5017570;28;20022;-79
2024/02/24 00:21:36;;;;;;;0.52;0.52;;;;;;;;;;5018683;28;20118;-80
2024/02/24 00:24:02;;;;;;;0.43;0.40;;;;;;;;;;5021365;28;20034;-78
2024/02/24 00:26:28;;;;;;;0.40;0.30;;;;;;;;;;5026393;28;20028;-81
2024/02/24 00:28:54;;;;;;;0.43;0.30;;;;;;;;;;5021585;28;20017;-80
2024/02/24 00:31:20;;;;;;;0.98;0.45;;;;;;;;;;5021130;28;20030;-79
2024/02/24 00:33:46;;;;;;;0.20;0.20;;;;;;;;;;5014807;28;20049;-79
2024/02/24 00:36:12;;;;;;;0.47;0.20;;;;;;;;;;5029396;28;20045;-78
2024/02/24 00:38:38;;;;;;;0.40;0.40;;;;;;;;;;5019677;28;20032;-79
2024/02/24 00:41:04;;;;;;;0.17;0.17;;;;;;;;;;5010229;28;20018;-80
2024/02/24 00:43:30;;;;;;;0.40;0.25;;;;;;;;;;5019947;28;20048;-81
2024/02/24 00:45:56;;;;;;;0.32;0.30;;;;;;;;;;5017954;28;20044;-77
2024/02/24 00:48:22;;;;;;;0.10;0.10;;;;;;;;;;5017108;28;20044;-79
2024/02/24 00:50:49;;;;;;;0.55;0.10;;;;;;;;;;5016940;28;20100;-79
2024/02/24 00:53:15;;;;;;;0.60;0.60;;;;;;;;;;5018181;28;20105;-79
2024/02/24 00:55:41;;;;;;;0.40;0.20;;;;;;;;;;5018443;28;20037;-77
2024/02/24 00:58:07;;;;;;;0.20;0.10;;;;;;;;;;5025709;28;20030;-78
2024/02/24 01:00:33;;;;;;;0.40;0.30;;;;;;;;;;5019048;28;20530;-79
2024/02/24 01:02:59;;;;;;;0.82;0.55;;;;;;;;;;5018477;28;20511;-79
2024/02/24 01:05:25;;;;;;;0.73;0.38;;;;;;;;;;5015435;28;20420;-79
2024/02/24 01:07:55;;;;;;;0.32;0.22;;;;;;;;;;5017161;28;20030;-79
2024/02/24 01:10:22;;;;;;;0.50;0.20;;;;;;;;;;5018282;28;20040;-80
2024/02/24 01:12:48;;;;;;;0.40;0.25;;;;;;;;;;5018015;28;20092;-79
2024/02/24 01:15:14;;;;;;;0.40;0.20;;;;;;;;;;5017597;28;20033;-80
2024/02/24 01:17:40;;;;;;;0.40;0.40;;;;;;;;;;5016780;28;20444;-79
2024/02/24 01:20:06;;;;;;;0.20;0.20;;;;;;;;;;5017716;28;20300;-79
2024/02/24 01:22:32;;;;;;;0.10;0.10;;;;;;;;;;5018549;28;20142;-78
2024/02/24 01:24:59;;;;;;;0.20;0.20;;;;;;;;;;5016998;28;20029;-79
2024/02/24 01:27:25;;;;;;;0.20;0.20;;;;;;;;;;4993833;28;20105;-80
2024/02/24 01:29:51;;;;;;;0.20;0.20;;;;;;;;;;5019150;28;20057;-79
2024/02/24 01:32:19;;;;;;;0.28;0.28;;;;;;;;;;5019309;28;20116;-79
2024/02/24 01:34:45;;;;;;;0.30;0.22;;;;;;;;;;5020450;28;20014;-79
2024/02/24 01:37:12;;;;;;;0.20;0.20;;;;;;;;;;5027628;28;20121;-80
2024/02/24 01:39:38;;;;;;;0.55;0.17;;;;;;;;;;5020196;28;20425;-78
2024/02/24 01:42:04;;;;;;;0.30;0.20;;;;;;;;;;5020120;28;20018;-78
2024/02/24 01:44:30;;;;;;;0.17;0.17;;;;;;;;;;5018298;28;20041;-79
2024/02/24 01:46:56;;;;;;;0.20;0.20;;;;;;;;;;5020333;28;20033;-79
2024/02/24 01:49:22;;;;;;;0.38;0.20;;;;;;;;;;5019025;28;20088;-79
2024/02/24 01:51:48;;;;;;;0.30;0.30;;;;;;;;;;5016857;28;20033;-78
2024/02/24 01:54:14;;;;;;;0.40;0.30;;;;;;;;;;5018007;28;20488;-80
2024/02/24 01:56:41;;;;;;;0.40;0.30;;;;;;;;;;5016790;28;20037;-79
2024/02/24 01:59:07;;;;;;;0.30;0.30;;;;;;;;;;5017408;28;20481;-77
2024/02/24 02:01:34;;;;;;;0.20;0.20;;;;;;;;;;5032344;28;20022;-79
2024/02/24 02:04:00;;;;;;;0.10;0.10;;;;;;;;;;5000705;28;20053;-79
2024/02/24 02:06:28;;;;;;;0.30;0.30;;;;;;;;;;5012587;28;20053;-78
2024/02/24 02:08:55;;;;;;;0.30;0.10;;;;;;;;;;5015912;28;20452;-79
2024/02/24 02:11:22;;;;;;;0.50;0.20;;;;;;;;;;5018273;28;20145;-80
2024/02/24 02:13:48;;;;;;;0.30;0.30;;;;;;;;;;5018647;28;20041;-77
2024/02/24 02:16:14;;;;;;;0.40;0.20;;;;;;;;;;5024859;28;20018;-77
2024/02/24 02:18:40;;;;;;;2.03;0.50;;;;;;;;;;5032450;28;20026;-78
2024/02/24 02:21:06;;;;;;;0.20;0.20;;;;;;;;;;5034213;28;20098;-80
2024/02/24 02:23:32;;;;;;;0.65;0.40;;;;;;;;;;5039307;28;20046;-79
2024/02/24 02:25:59;;;;;;;0.10;0.10;;;;;;;;;;5056657;28;20009;-78
2024/02/24 02:28:25;;;;;;;0.45;0.30;;;;;;;;;;5057835;28;20025;-78
2024/02/24 02:30:51;;;;;;;0.20;0.20;;;;;;;;;;5034409;28;20530;-78
2024/02/24 02:33:17;;;;;;;0.55;0.13;;;;;;;;;;5039669;28;20022;-79
2024/02/24 02:35:43;;;;;;;0.68;0.30;;;;;;;;;;5039919;28;20103;-79
2024/02/24 02:38:10;;;;;;;0.40;0.30;;;;;;;;;;5034333;28;20037;-78
2024/02/24 02:40:36;;;;;;;0.22;0.20;;;;;;;;;;5054350;28;20034;-80
2024/02/24 02:43:05;;;;;;;0.30;0.30;;;;;;;;;;5038065;28;20025;-79
2024/02/24 02:45:32;;;;;;;0.20;0.15;;;;;;;;;;5037679;28;20026;-78
2024/02/24 02:47:58;;;;;;;0.17;0.17;;;;;;;;;;5033492;28;20029;-77
2024/02/24 02:50:24;;;;;;;0.38;0.13;;;;;;;;;;5039156;28;20026;-78
2024/02/24 02:52:50;;;;;;;1.30;0.38;;;;;;;;;;5039767;28;20029;-80
2024/02/24 02:55:17;;;;;;;0.22;0.10;;;;;;;;;;5038232;28;20105;-79
2024/02/24 02:57:44;;;;;;;0.10;0.10;;;;;;;;;;5039671;28;20014;-79
2024/02/24 03:00:10;;;;;;;1.20;0.38;;;;;;;;;;5036408;28;20018;-78
2024/02/24 03:02:36;;;;;;;0.63;0.10;;;;;;;;;;5051460;28;20029;-79
2024/02/24 03:05:02;;;;;;;0.60;0.35;;;;;;;;;;5024177;28;20095;-78
2024/02/24 03:07:28;;;;;;;0.05;0.05;;;;;;;;;;5034290;28;20440;-79
2024/02/24 03:09:55;;;;;;;0.30;0.10;;;;;;;;;;5030628;28;20495;-79
2024/02/24 03:12:21;;;;;;;0.50;0.10;;;;;;;;;;5026240;28;20419;-79
2024/02/24 03:14:47;;;;;;;0.32;0.20;;;;;;;;;;5030348;28;20041;-78
2024/02/24 03:17:13;;;;;;;0.10;0.10;;;;;;;;;;5046344;28;20033;-78
2024/02/24 03:19:40;;;;;;;0.30;0.30;;;;;;;;;;5041507;28;20026;-79
2024/02/24 03:22:06;;;;;;;0.38;0.10;;;;;;;;;;5040430;28;20096;-78
2024/02/24 03:24:32;;;;;;;0.25;0.17;;;;;;;;;;5034758;28;20026;-79
2024/02/24 03:26:58;;;;;;;0.13;0.13;;;;;;;;;;5047368;28;20038;-79
2024/02/24 03:29:24;;;;;;;0.08;0.00;;;;;;;;;;5034390;28;20112;-78
2024/02/24 03:31:50;;;;;;;0.10;0.00;;;;;;;;;;5032734;28;20026;-79
2024/02/24 03:34:17;;;;;;;0.13;0.10;;;;;;;;;;5032811;28;20025;-80
2024/02/24 03:36:43;;;;;;;0.40;0.40;;;;;;;;;;5028008;28;20033;-79
2024/02/24 03:39:10;;;;;;;0.10;0.10;;;;;;;;;;5026275;28;20108;-79
2024/02/24 03:41:36;;;;;;;0.35;0.20;;;;;;;;;;5034111;28;20022;-79
2024/02/24 03:44:02;;;;;;;0.13;0.13;;;;;;;;;;5046267;28;20025;-78
2024/02/24 03:46:28;;;;;;;0.10;0.10;;;;;;;;;;5032912;28;20041;-77
2024/02/24 03:48:54;;;;;;;0.30;0.20;;;;;;;;;;5032208;28;20022;-79
2024/02/24 03:51:20;;;;;;;0.73;0.20;;;;;;;;;;5026107;28;20032;-78
2024/02/24 03:53:47;;;;;;;0.10;0.00;;;;;;;;;;5024109;28;20041;-79
2024/02/24 03:56:13;;;;;;;0.10;0.10;;;;;;;;;;5024158;28;20026;-77
2024/02/24 03:58:42;;;;;;;0.20;0.10;;;;;;;;;;5025104;28;20042;-78
2024/02/24 04:01:08;;;;;;;0.13;0.10;;;;;;;;;;5021868;28;20022;-79
2024/02/24 04:03:34;;;;;;;0.52;0.13;;;;;;;;;;5022392;28;20032;-78
2024/02/24 04:06:00;;;;;;;0.70;0.20;;;;;;;;;;5024358;28;20114;-78
2024/02/24 04:08:26;;;;;;;0.00;0.00;;;;;;;;;;5035600;28;20521;-78
2024/02/24 04:10:52;;;;;;;0.40;0.10;;;;;;;;;;5023259;28;20026;-79
2024/02/24 04:13:20;;;;;;;0.30;0.20;;;;;;;;;;5026048;28;20025;-79
2024/02/24 04:15:52;;;;;;;0.10;0.00;;;;;;;;;;5024228;28;20101;-78
2024/02/24 04:18:21;;;;;;;0.00;0.00;;;;;;;;;;5035440;28;20044;-79
2024/02/24 04:20:47;;;;;;;0.10;0.00;;;;;;;;;;5027763;28;20052;-79
2024/02/24 04:23:14;;;;;;;0.00;0.00;;;;;;;;;;5024731;28;20021;-79
2024/02/24 04:25:40;;;;;;;0.55;0.10;;;;;;;;;;5031669;28;20037;-79
2024/02/24 04:28:06;;;;;;;0.00;0.00;;;;;;;;;;5031742;28;20026;-79
2024/02/24 04:30:32;;;;;;;0.10;0.10;;;;;;;;;;5020164;28;20095;-78
2024/02/24 04:32:58;;;;;;;0.15;0.15;;;;;;;;;;5034607;28;20377;-78
2024/02/24 04:35:24;;;;;;;0.20;0.10;;;;;;;;;;5034744;28;20055;-79
2024/02/24 04:37:50;;;;;;;0.00;0.00;;;;;;;;;;5037104;28;20061;-77
2024/02/24 04:40:16;;;;;;;0.00;0.00;;;;;;;;;;5037076;28;20037;-77
2024/02/24 04:42:42;;;;;;;0.10;0.10;;;;;;;;;;5037885;28;20040;-78
2024/02/24 04:45:09;;;;;;;0.35;0.10;;;;;;;;;;5038019;28;20022;-78
2024/02/24 04:47:35;;;;;;;0.00;0.00;;;;;;;;;;5036753;28;20042;-77
2024/02/24 04:50:01;;;;;;;0.00;0.00;;;;;;;;;;5034505;28;20041;-78
2024/02/24 04:52:27;;;;;;;0.05;0.00;;;;;;;;;;5024162;28;20078;-78
2024/02/24 04:54:54;;;;;;;0.00;0.00;;;;;;;;;;5062125;28;20029;-77
2024/02/24 04:57:21;;;;;;;0.20;0.10;;;;;;;;;;5056391;28;20026;-76
2024/02/24 04:59:47;;;;;;;0.00;0.00;;;;;;;;;;5028278;28;20091;-78
2024/02/24 05:02:13;;;;;;;0.00;0.00;;;;;;;;;;5021137;28;20024;-78
2024/02/24 05:04:39;;;;;;;0.00;0.00;;;;;;;;;;5018831;28;20101;-77
2024/02/24 05:07:05;;;;;;;0.10;0.10;;;;;;;;;;5016677;28;20622;-78
2024/02/24 05:09:31;;;;;;;0.10;0.10;;;;;;;;;;5017788;28;20508;-80
2024/02/24 05:11:58;;;;;;;0.20;0.10;;;;;;;;;;5040268;28;20041;-79
2024/02/24 05:14:24;;;;;;;0.10;0.00;;;;;;;;;;5017353;28;20029;-78
2024/02/24 05:16:50;;;;;;;0.20;0.08;;;;;;;;;;5014540;28;20049;-79
2024/02/24 05:19:16;;;;;;;0.15;0.03;;;;;;;;;;5016847;28;20022;-79
2024/02/24 05:21:42;;;;;;;0.30;0.10;;;;;;;;;;5016341;28;20030;-81
2024/02/24 05:24:08;;;;;;;0.00;0.00;;;;;;;;;;5023289;28;20064;-79
2024/02/24 05:26:35;;;;;;;0.10;0.00;;;;;;;;;;5026844;28;20075;-78
2024/02/24 05:29:01;;;;;;;0.08;0.08;;;;;;;;;;5020910;28;20029;-79
2024/02/24 05:31:27;;;;;;;0.43;0.00;;;;;;;;;;5024801;28;20488;-78
2024/02/24 05:33:53;;;;;;;0.10;0.08;;;;;;;;;;5024336;28;20057;-79
2024/02/24 05:36:19;;;;;;;0.10;0.10;;;;;;;;;;5021974;28;20053;-80
2024/02/24 05:38:46;;;;;;;0.05;0.05;;;;;;;;;;5021702;28;20392;-81
2024/02/24 05:41:15;;;;;;;0.05;0.00;;;;;;;;;;5023609;28;20481;-78
2024/02/24 05:43:41;;;;;;;0.10;0.10;;;;;;;;;;5023617;28;20037;-79
2024/02/24 05:46:07;;;;;;;0.00;0.00;;;;;;;;;;5025480;28;20030;-79
2024/02/24 05:48:34;;;;;;;0.57;0.10;;;;;;;;;;5025290;28;20033;-79
2024/02/24 05:51:00;;;;;;;0.38;0.10;;;;;;;;;;5021893;28;20053;-80
2024/02/24 05:53:26;;;;;;;0.15;0.10;;;;;;;;;;5013775;28;20130;-77
2024/02/24 05:55:52;;;;;;;0.30;0.10;;;;;;;;;;5030614;28;20096;-80
2024/02/24 05:58:18;;;;;;;0.38;0.10;;;;;;;;;;5021693;28;20022;-79
2024/02/24 06:00:45;;;;;;;0.30;0.08;;;;;;;;;;5028854;28;20022;-79
2024/02/24 06:03:12;;;;;;;0.43;0.25;;;;;;;;;;5024899;28;20041;-80
2024/02/24 06:05:38;;;;;;;1.98;0.10;;;;;;;;;;5049967;28;20039;-79
2024/02/24 06:08:05;;;;;;;0.20;0.17;;;;;;;;;;5029046;28;20029;-79
2024/02/24 06:10:31;;;;;;;0.28;0.20;;;;;;;;;;5024748;28;20030;-80
2024/02/24 06:12:58;;;;;;;0.10;0.10;;;;;;;;;;5019736;28;20493;-81
2024/02/24 06:15:25;;;;;;;0.25;0.20;;;;;;;;;;5020396;28;20065;-81
2024/02/24 06:17:51;;;;;;;0.00;0.00;;;;;;;;;;5019216;28;20607;-80
2024/02/24 06:20:17;;;;;;;0.08;0.08;;;;;;;;;;5020432;28;20417;-79
2024/02/24 06:22:43;;;;;;;0.10;0.10;;;;;;;;;;5020135;28;20033;-80
2024/02/24 06:25:10;;;;;;;0.13;0.10;;;;;;;;;;5020022;28;20029;-81
2024/02/24 06:27:36;;;;;;;0.10;0.10;;;;;;;;;;5022103;28;20233;-80
2024/02/24 06:30:02;;;;;;;0.30;0.10;;;;;;;;;;5022818;28;20033;-81
2024/02/24 06:32:28;;;;;;;0.10;0.10;;;;;;;;;;5020130;28;20045;-79
2024/02/24 06:34:54;;;;;;;0.15;0.10;;;;;;;;;;5020105;28;20554;-81
2024/02/24 06:37:20;;;;;;;0.10;0.10;;;;;;;;;;5018347;28;20029;-79
2024/02/24 06:39:47;;;;;;;0.10;0.10;;;;;;;;;;5035662;28;20073;-79
2024/02/24 06:42:13;;;;;;;0.20;0.20;;;;;;;;;;5005448;28;20440;-81
2024/02/24 06:44:40;;;;;;;0.20;0.00;;;;;;;;;;5025909;28;20033;-80
2024/02/24 06:47:06;;;;;;;0.10;0.00;;;;;;;;;;5024105;28;20033;-80
2024/02/24 06:49:32;;;;;;;0.73;0.20;;;;;;;;;;5051862;28;20048;-79
2024/02/24 06:51:58;;;;;;;0.10;0.10;;;;;;;;;;5019539;28;20081;-80
2024/02/24 06:54:24;;;;;;;0.10;0.10;;;;;;;;;;5040433;28;20492;-80
2024/02/24 06:56:50;;;;;;;0.03;0.03;;;;;;;;;;5035815;28;20448;-81
2024/02/24 06:59:17;;;;;;;0.32;0.22;;;;;;;;;;5021906;28;20110;-81
2024/02/24 07:01:43;;;;;;;0.10;0.10;;;;;;;;;;5029446;28;20052;-81
2024/02/24 07:04:09;;;;;;;0.20;0.10;;;;;;;;;;5029641;28;20034;-79
2024/02/24 07:06:35;;;;;;;0.20;0.20;;;;;;;;;;5034034;28;20036;-80
2024/02/24 07:09:01;;;;;;;0.30;0.20;;;;;;;;;;5040245;28;20394;-80
2024/02/24 07:11:27;;;;;;;0.40;0.10;;;;;;;;;;5050941;28;20042;-80
2024/02/24 07:13:53;;;;;;;0.30;0.20;;;;;;;;;;5026789;28;20025;-80
2024/02/24 07:16:19;;;;;;;0.30;0.20;;;;;;;;;;5026276;28;20436;-80
2024/02/24 07:18:45;;;;;;;0.20;0.10;;;;;;;;;;5025172;28;20061;-78
2024/02/24 07:21:11;;;;;;;0.30;0.20;;;;;;;;;;5053744;28;20030;-79
2024/02/24 07:23:40;;;;;;;0.13;0.13;;;;;;;;;;5036600;28;20044;-80
2024/02/24 07:26:06;;;;;;;0.17;0.17;;;;;;;;;;5038588;28;20030;-80
2024/02/24 07:28:32;;;;;;;0.52;0.20;;;;;;;;;;5022335;28;20022;-81
2024/02/24 07:30:58;;;;;;;0.40;0.30;;;;;;;;;;5014631;28;20033;-81
2024/02/24 07:33:25;;;;;;;0.25;0.25;;;;;;;;;;5022478;28;20098;-81
2024/02/24 07:35:51;;;;;;;0.88;0.35;;;;;;;;;;5022226;28;20461;-79
2024/02/24 07:38:17;;;;;;;0.10;0.10;;;;;;;;;;5028747;28;20038;-79
2024/02/24 07:40:44;;;;;;;1.13;0.20;;;;;;;;;;5034310;28;20045;-81
2024/02/24 07:43:10;;;;;;;0.20;0.20;;;;;;;;;;5029295;28;20041;-79
2024/02/24 07:45:39;;;;;;;0.10;0.10;;;;;;;;;;5017272;28;20037;-81
2024/02/24 07:48:06;;;;;;;0.28;0.20;;;;;;;;;;5030939;28;20065;-81
2024/02/24 07:50:32;;;;;;;0.20;0.20;;;;;;;;;;5013053;28;20045;-80
2024/02/24 07:52:58;;;;;;;0.38;0.30;;;;;;;;;;5032152;28;20152;-81
2024/02/24 07:55:24;;;;;;;0.38;0.10;;;;;;;;;;5039325;28;20028;-79
2024/02/24 07:57:50;;;;;;;0.22;0.22;;;;;;;;;;5020875;28;20080;-81
2024/02/24 08:00:17;;;;;;;0.43;0.43;;;;;;;;;;5021421;28;20022;-79
2024/02/24 08:02:43;;;;;;;0.30;0.22;;;;;;;;;;5017251;28;20029;-80
2024/02/24 08:05:09;;;;;;;0.28;0.20;;;;;;;;;;5021928;28;20018;-81
2024/02/24 08:07:35;;;;;;;0.28;0.20;;;;;;;;;;5022217;28;20472;-80
2024/02/24 08:10:01;;;;;;;0.63;0.30;;;;;;;;;;5021247;28;20018;-81
2024/02/24 08:12:27;;;;;;;0.28;0.28;;;;;;;;;;5020580;28;20059;-80
2024/02/24 08:14:53;;;;;;;0.10;0.10;;;;;;;;;;5024450;28;20105;-81
2024/02/24 08:17:20;;;;;;;0.10;0.10;;;;;;;;;;5023360;28;20025;-80
2024/02/24 08:19:47;;;;;;;0.25;0.25;;;;;;;;;;5022616;28;20021;-81
2024/02/24 08:22:13;;;;;;;0.35;0.32;;;;;;;;;;5022733;28;20029;-81
2024/02/24 08:24:39;;;;;;;0.70;0.40;;;;;;;;;;5030522;28;20435;-80
2024/02/24 08:27:05;;;;;;;1.42;0.30;;;;;;;;;;5023452;28;20026;-79
2024/02/24 08:29:32;;;;;;;0.20;0.20;;;;;;;;;;5021475;28;20072;-80
2024/02/24 08:31:58;;;;;;;1.00;0.40;;;;;;;;;;5020852;28;20026;-81
2024/02/24 08:34:24;;;;;;;0.20;0.20;;;;;;;;;;5020308;28;20026;-80
2024/02/24 08:36:54;;;;;;;0.20;0.20;;;;;;;;;;5019986;28;20025;-80
2024/02/24 08:39:20;;;;;;;0.85;0.50;;;;;;;;;;5019126;28;20073;-80
2024/02/24 08:41:46;;;;;;;0.15;0.15;;;;;;;;;;5042760;28;20059;-81
2024/02/24 08:44:12;;;;;;;0.85;0.30;;;;;;;;;;5046632;28;20042;-79
2024/02/24 08:46:38;;;;;;;0.40;0.40;;;;;;;;;;5022694;28;20053;-78
2024/02/24 08:49:05;;;;;;;0.98;0.20;;;;;;;;;;5018801;28;20022;-81
2024/02/24 08:51:31;;;;;;;0.75;0.50;;;;;;;;;;5020176;28;20034;-80
2024/02/24 08:53:58;;;;;;;0.57;0.25;;;;;;;;;;5012554;28;20370;-80
2024/02/24 08:56:24;;;;;;;0.40;0.20;;;;;;;;;;5018179;28;20393;-80
2024/02/24 08:58:51;;;;;;;0.60;0.25;;;;;;;;;;5016537;28;20022;-79
2024/02/24 09:01:18;;;;;;;0.13;0.13;;;;;;;;;;5019480;28;20025;-79
2024/02/24 09:03:44;;;;;;;0.57;0.20;;;;;;;;;;5028448;28;20038;-81
2024/02/24 09:06:11;;;;;;;0.50;0.30;;;;;;;;;;5015887;28;20037;-79
2024/02/24 09:08:37;;;;;;;0.95;0.32;;;;;;;;;;5017575;28;20046;-80
2024/02/24 09:11:04;;;;;;;0.30;0.30;;;;;;;;;;5027766;28;20029;-79
2024/02/24 09:13:30;;;;;;;2.30;0.52;;;;;;;;;;5013845;28;20042;-79
2024/02/24 09:15:56;;;;;;;0.55;0.30;;;;;;;;;;5021763;28;20033;-81
2024/02/24 09:18:22;;;;;;;0.50;0.30;;;;;;;;;;5018075;28;20559;-80
2024/02/24 09:20:48;;;;;;;0.50;0.25;;;;;;;;;;5021283;28;20022;-79
2024/02/24 09:23:14;;;;;;;0.20;0.20;;;;;;;;;;5044834;28;20029;-81
2024/02/24 09:25:40;;;;;;;0.38;0.32;;;;;;;;;;5040037;28;20030;-81
2024/02/24 09:28:08;;;;;;;0.95;0.30;;;;;;;;;;5051659;28;20057;-82
2024/02/24 09:30:34;;;;;;;2.17;0.60;;;;;;;;;;5052939;28;20009;-80
2024/02/24 09:33:00;;;;;;;0.68;0.20;;;;;;;;;;5029831;28;20026;-81
2024/02/24 09:35:26;;;;;;;0.35;0.20;;;;;;;;;;5036612;28;20050;-81
2024/02/24 09:37:52;;;;;;;0.30;0.30;;;;;;;;;;5050257;28;20026;-82
2024/02/24 09:40:18;;;;;;;0.50;0.30;;;;;;;;;;5032453;28;20053;-81
2024/02/24 09:42:44;;;;;;;0.45;0.25;;;;;;;;;;5017906;28;20034;-82
2024/02/24 09:45:11;;;;;;;0.30;0.30;;;;;;;;;;5044650;28;20044;-81
2024/02/24 09:47:37;;;;;;;2.20;0.43;;;;;;;;;;5014720;28;20033;-81
2024/02/24 09:50:04;;;;;;;0.75;0.40;;;;;;;;;;5016022;28;20429;-80
2024/02/24 09:52:30;;;;;;;0.10;0.10;;;;;;;;;;5024356;28;20132;-81
2024/02/24 09:54:56;;;;;;;0.30;0.30;;;;;;;;;;5023504;28;20045;-81
2024/02/24 09:57:25;;;;;;;1.30;0.20;;;;;;;;;;5038257;28;20112;-80
2024/02/24 09:59:51;;;;;;;2.15;0.28;;;;;;;;;;5040164;28;20021;-81
2024/02/24 10:02:17;;;;;;;0.38;0.30;;;;;;;;;;5020535;28;20848;-79
2024/02/24 10:04:43;;;;;;;0.40;0.20;;;;;;;;;;5021611;28;20030;-79
2024/02/24 10:07:09;;;;;;;0.32;0.30;;;;;;;;;;5013637;28;20034;-80
2024/02/24 10:09:35;;;;;;;0.10;0.10;;;;;;;;;;5022223;28;20059;-80
2024/02/24 10:12:02;;;;;;;0.13;0.13;;;;;;;;;;5018853;28;20030;-81
2024/02/24 10:14:28;;;;;;;1.92;0.30;;;;;;;;;;5024799;28;20025;-81
2024/02/24 10:16:56;;;;;;;1.30;0.38;;;;;;;;;;5022791;28;20090;-82
2024/02/24 10:19:22;;;;;;;1.70;0.43;;;;;;;;;;5022797;28;20062;-80
2024/02/24 10:21:48;;;;;;;1.15;0.30;;;;;;;;;;5021944;28;20057;-80
2024/02/24 10:24:14;;;;;;;0.25;0.25;;;;;;;;;;5024124;28;20060;-81
2024/02/24 10:26:41;;;;;;;0.90;0.30;;;;;;;;;;5046280;28;20034;-81
2024/02/24 10:29:07;;;;;;;0.45;0.30;;;;;;;;;;5031505;28;20105;-81
2024/02/24 10:31:35;;;;;;;0.20;0.20;;;;;;;;;;5031247;28;20034;-81
2024/02/24 10:34:04;;;;;;;1.08;0.40;;;;;;;;;;5032089;28;20025;-80
2024/02/24 10:36:30;;;;;;;0.30;0.20;;;;;;;;;;5012595;28;20109;-81
2024/02/24 10:38:58;;;;;;;1.45;0.30;;;;;;;;;;5020719;28;20293;-81
2024/02/24 10:41:27;;;;;;;0.63;0.50;;;;;;;;;;5023737;28;20445;-80
2024/02/24 10:43:53;;;;;;;0.45;0.30;;;;;;;;;;5032112;28;20022;-80
2024/02/24 10:46:19;;;;;;;0.25;0.25;;;;;;;;;;5036153;28;20122;-81
2024/02/24 10:48:45;;;;;;;1.30;0.40;;;;;;;;;;5020178;28;20429;-81
2024/02/24 10:51:13;;;;;;;0.30;0.30;;;;;;;;;;5023310;28;20053;-81
2024/02/24 10:53:40;;;;;;;1.48;0.38;;;;;;;;;;5023628;28;20068;-82
2024/02/24 10:56:07;;;;;;;0.45;0.38;;;;;;;;;;5021682;28;20022;-80
2024/02/24 10:58:35;;;;;;;4.03;0.30;;;;;;;;;;5037298;28;20030;-79
2024/02/24 11:01:01;;;;;;;0.80;0.50;;;;;;;;;;5026861;28;20029;-78
2024/02/24 11:03:27;;;;;;;1.42;0.40;;;;;;;;;;5023427;28;20067;-81
2024/02/24 11:05:53;;;;;;;1.85;0.30;;;;;;;;;;5024584;28;20021;-81
2024/02/24 11:08:35;;;;;;;0.90;0.45;;;;;;;;;;5026361;28;20033;-80
2024/02/24 11:11:05;;;;;;;0.57;0.55;;;;;;;;;;5023836;28;20040;-79
2024/02/24 11:13:32;;;;;;;0.73;0.40;;;;;;;;;;5018674;28;20049;-80
2024/02/24 11:15:59;;;;;;;1.02;0.60;;;;;;;;;;5037997;28;20500;-81
2024/02/24 11:18:43;;;;;;;2.00;0.40;;;;;;;;;;5018027;28;20018;-81
2024/02/24 11:21:10;;;;;;;1.05;0.45;;;;;;;;;;5029396;28;20032;-80
2024/02/24 11:23:37;;;;;;;0.60;0.35;;;;;;;;;;5046050;28;20037;-80
2024/02/24 11:26:13;;;;;;;2.03;0.50;;;;;;;;;;5057164;28;20030;-80
2024/02/24 11:28:38;;;;;;;0.90;0.57;;;;;;;;;;5026588;28;20026;-81
2024/02/24 11:31:05;;;;;;;0.20;0.20;;;;;;;;;;5037677;28;20034;-81
2024/02/24 11:33:36;;;;;;;0.55;0.50;;;;;;;;;;5023559;28;20018;-81
2024/02/24 11:36:03;;;;;;;1.85;0.40;;;;;;;;;;5022906;28;20037;-80
2024/02/24 11:38:29;;;;;;;0.30;0.30;;;;;;;;;;5036910;28;20026;-81
2024/02/24 11:40:55;;;;;;;0.90;0.85;;;;;;;;;;5022573;28;20052;-81
2024/02/24 11:43:21;;;;;;;0.90;0.43;;;;;;;;;;5015515;28;20092;-81
2024/02/24 11:45:52;;;;;;;1.80;0.63;;;;;;;;;;5029104;28;20022;-81
2024/02/24 11:48:19;;;;;;;0.70;0.35;;;;;;;;;;5025758;28;20484;-81
2024/02/24 11:50:45;;;;;;;0.52;0.30;;;;;;;;;;5026829;28;20088;-81
2024/02/24 11:53:12;;;;;;;0.52;0.50;;;;;;;;;;5022534;28;20093;-79
2024/02/24 11:55:38;;;;;;;1.15;0.65;;;;;;;;;;5024600;28;20028;-80
2024/02/24 11:58:07;;;;;;;0.68;0.35;;;;;;;;;;5027607;28;20053;-80
2024/02/24 12:00:42;;;;;;;0.50;0.50;;;;;;;;;;5036727;28;20026;-79
2024/02/24 12:03:13;;;;;;;1.80;0.85;;;;;;;;;;5036198;28;20045;-81
2024/02/24 12:05:39;;;;;;;1.55;0.77;;;;;;;;;;5038134;28;20046;-81
2024/02/24 12:08:06;;;;;;;0.80;0.75;;;;;;;;;;5037769;28;20018;-81
2024/02/24 12:10:36;;;;;;;1.88;0.80;;;;;;;;;;5047722;28;20101;-80
2024/02/24 12:13:06;;;;;;;1.45;0.68;;;;;;;;;;5034925;28;20045;-81
2024/02/24 12:15:34;;;;;;;0.57;0.50;;;;;;;;;;5049409;28;20017;-81
2024/02/24 12:18:00;;;;;;;1.23;0.80;;;;;;;;;;5045122;28;20018;-81
2024/02/24 12:20:26;;;;;;;0.90;0.60;;;;;;;;;;5034825;28;20048;-80
2024/02/24 12:22:52;;;;;;;0.50;0.40;;;;;;;;;;5052431;28;20014;-81
2024/02/24 12:25:21;;;;;;;1.25;0.45;;;;;;;;;;5045235;28;20093;-79
2024/02/24 12:27:48;;;;;;;0.60;0.50;;;;;;;;;;5030471;28;20079;-79
2024/02/24 12:30:14;;;;;;;0.50;0.30;;;;;;;;;;5027955;28;20103;-81
2024/02/24 12:32:42;;;;;;;0.30;0.30;;;;;;;;;;5015254;28;20040;-80
2024/02/24 12:35:10;;;;;;;0.38;0.38;;;;;;;;;;5012950;28;20022;-80
2024/02/24 12:37:37;;;;;;;0.30;0.30;;;;;;;;;;5012079;28;20033;-80
2024/02/24 12:40:06;;;;;;;0.63;0.32;;;;;;;;;;5018013;28;20033;-79
2024/02/24 12:42:39;;;;;;;1.77;0.47;;;;;;;;;;5019535;28;20022;-80
2024/02/24 12:45:05;;;;;;;1.45;0.30;;;;;;;;;;5020001;28;20026;-80
2024/02/24 12:47:32;;;;;;;1.08;0.45;;;;;;;;;;5025374;28;20040;-80
2024/02/24 12:49:58;;;;;;;0.40;0.40;;;;;;;;;;5018836;28;20084;-80
2024/02/24 12:52:25;;;;;;;0.30;0.30;;;;;;;;;;5019688;28;20068;-82
2024/02/24 12:54:51;;;;;;;0.35;0.35;;;;;;;;;;5023247;28;20033;-79
2024/02/24 12:57:17;;;;;;;1.05;0.57;;;;;;;;;;5018594;28;20475;-81
2024/02/24 12:59:43;;;;;;;0.85;0.30;;;;;;;;;;5024845;28;20086;-80
2024/02/24 13:02:09;;;;;;;0.82;0.50;;;;;;;;;;5035865;28;20026;-81
2024/02/24 13:04:35;;;;;;;0.43;0.30;;;;;;;;;;5028280;28;20041;-80
2024/02/24 13:07:01;;;;;;;0.40;0.40;;;;;;;;;;5020537;28;20428;-80
2024/02/24 13:09:28;;;;;;;0.60;0.50;;;;;;;;;;5027619;28;20018;-80
2024/02/24 13:11:55;;;;;;;0.55;0.40;;;;;;;;;;5032117;28;20279;-79
2024/02/24 13:14:21;;;;;;;0.70;0.60;;;;;;;;;;5025446;28;20018;-78
2024/02/24 13:16:47;;;;;;;0.30;0.30;;;;;;;;;;5028428;28;20060;-79
2024/02/24 13:19:13;;;;;;;0.73;0.43;;;;;;;;;;5039385;28;20030;-79
2024/02/24 13:21:39;;;;;;;0.30;0.30;;;;;;;;;;5017629;28;20025;-79
2024/02/24 13:24:06;;;;;;;0.30;0.30;;;;;;;;;;5024536;28;20022;-80
2024/02/24 13:26:32;;;;;;;0.82;0.40;;;;;;;;;;5019836;28;20029;-81
2024/02/24 13:28:58;;;;;;;0.65;0.40;;;;;;;;;;5031730;28;20026;-80
2024/02/24 13:31:25;;;;;;;2.55;0.85;;;;;;;;;;5026700;28;20550;-81
2024/02/24 13:33:56;;;;;;;0.65;0.47;;;;;;;;;;5019513;28;20022;-80
2024/02/24 13:36:24;;;;;;;0.22;0.22;;;;;;;;;;5020320;28;20046;-79
2024/02/24 13:38:50;;;;;;;1.25;0.30;;;;;;;;;;5026278;28;20018;-80
2024/02/24 13:41:17;;;;;;;0.50;0.32;;;;;;;;;;5020476;28;20045;-78
2024/02/24 13:43:43;;;;;;;0.47;0.30;;;;;;;;;;5040386;28;20516;-81
2024/02/24 13:46:09;;;;;;;0.35;0.30;;;;;;;;;;5024749;28;20051;-79
2024/02/24 13:48:35;;;;;;;0.45;0.40;;;;;;;;;;5039867;28;20542;-79
2024/02/24 13:51:01;;;;;;;0.25;0.25;;;;;;;;;;5025298;28;20036;-79
2024/02/24 13:53:27;;;;;;;1.95;0.60;;;;;;;;;;5035888;28;20041;-80
2024/02/24 13:55:53;;;;;;;0.30;0.30;;;;;;;;;;5020609;28;20092;-80
2024/02/24 13:58:20;;;;;;;0.40;0.40;;;;;;;;;;5020672;28;20041;-81
2024/02/24 14:00:46;;;;;;;0.30;0.30;;;;;;;;;;5026235;28;20033;-82
2024/02/24 14:03:12;;;;;;;0.30;0.30;;;;;;;;;;5033788;28;20465;-80
2024/02/24 14:05:39;;;;;;;0.70;0.50;;;;;;;;;;5013824;28;20030;-80
2024/02/24 14:08:11;;;;;;;0.32;0.30;;;;;;;;;;5042513;28;20044;-81
2024/02/24 14:10:38;;;;;;;0.55;0.50;;;;;;;;;;5019516;28;20030;-80
2024/02/24 14:13:04;;;;;;;0.63;0.45;;;;;;;;;;5021835;28;20030;-81
2024/02/24 14:15:30;;;;;;;0.95;0.80;;;;;;;;;;5024040;28;20014;-81
2024/02/24 14:17:58;;;;;;;0.63;0.38;;;;;;;;;;5023549;28;20029;-81
2024/02/24 14:20:26;;;;;;;1.00;0.45;;;;;;;;;;5023751;28;20473;-81
2024/02/24 14:22:52;;;;;;;0.30;0.30;;;;;;;;;;5025173;28;20061;-79
2024/02/24 14:25:19;;;;;;;0.65;0.30;;;;;;;;;;5021508;28;20025;-79
2024/02/24 14:27:45;;;;;;;0.30;0.30;;;;;;;;;;5021400;28;20029;-80
2024/02/24 14:30:11;;;;;;;0.50;0.20;;;;;;;;;;5020156;28;20065;-80
2024/02/24 14:32:37;;;;;;;0.70;0.50;;;;;;;;;;5018160;28;20045;-80
2024/02/24 14:35:13;;;;;;;0.55;0.50;;;;;;;;;;5046053;28;20034;-80
2024/02/24 14:37:43;;;;;;;0.45;0.45;;;;;;;;;;5018864;28;20026;-79
2024/02/24 14:40:09;;;;;;;1.05;0.38;;;;;;;;;;5020779;28;20025;-80